createdAt,value
2019-04-27T00:00:47.465Z,100581.12
2019-04-27T00:03:18.568Z,100589.02
2019-04-27T00:05:49.682Z,100596.06
2019-04-27T00:08:24.044Z,100596.91
2019-04-27T00:10:59.774Z,100596.89
2019-04-27T00:13:29.910Z,100585.41
2019-04-27T00:16:11.068Z,100587.20
2019-04-27T00:18:45.164Z,100580.11
2019-04-27T00:21:21.394Z,100574.39
2019-04-27T00:23:50.863Z,100572.63
2019-04-27T00:26:20.298Z,100568.64
2019-04-27T00:28:49.762Z,100565.09
2019-04-27T00:31:19.243Z,100560.23
2019-04-27T00:33:49.868Z,100557.15
2019-04-27T00:36:32.916Z,100553.17
2019-04-27T00:39:09.784Z,100549.25
2019-04-27T00:41:40.883Z,100547.03
2019-04-27T00:44:10.608Z,100545.28
2019-04-27T00:46:40.083Z,100545.27
2019-04-27T00:49:09.614Z,100539.94
2019-04-27T00:51:39.150Z,100533.30
2019-04-27T00:54:08.623Z,100528.89
2019-04-27T00:56:48.729Z,100524.02
2019-04-27T00:59:36.071Z,100518.71
2019-04-27T01:02:16.282Z,100523.53
2019-04-27T01:04:45.761Z,100522.16
2019-04-27T01:07:15.269Z,100527.91
2019-04-27T01:09:44.923Z,100525.22
2019-04-27T01:12:15.226Z,100532.73
2019-04-27T01:14:45.125Z,100531.83
2019-04-27T01:17:15.745Z,100532.27
2019-04-27T01:19:45.281Z,100528.25
2019-04-27T01:22:14.884Z,100524.74
2019-04-27T01:24:44.360Z,100529.61
2019-04-27T01:27:32.008Z,100516.33
2019-04-27T01:30:01.748Z,100512.81
2019-04-27T01:32:33.871Z,100513.25
2019-04-27T01:35:02.518Z,100511.45
2019-04-27T01:37:33.026Z,100507.03
2019-04-27T01:40:03.669Z,100514.50
2019-04-27T01:42:33.198Z,100509.20
2019-04-27T01:45:02.751Z,100507.81
2019-04-27T01:47:32.505Z,100505.16
2019-04-27T01:50:01.993Z,100508.23
2019-04-27T01:52:31.436Z,100509.97
2019-04-27T01:55:00.904Z,100509.53
2019-04-27T01:57:30.604Z,100509.48
2019-04-27T02:00:00.071Z,100516.53
2019-04-27T02:02:31.221Z,100514.27
2019-04-27T02:05:19.033Z,100523.05
2019-04-27T02:07:49.122Z,100516.84
2019-04-27T02:10:19.299Z,100514.59
2019-04-27T02:12:48.896Z,100516.32
2019-04-27T02:15:19.134Z,100520.70
2019-04-27T02:17:50.809Z,100516.25
2019-04-27T02:20:19.947Z,100502.11
2019-04-27T02:22:50.750Z,100511.78
2019-04-27T02:25:21.123Z,100510.45
2019-04-27T02:27:59.356Z,100522.34
2019-04-27T02:30:45.618Z,100522.28
2019-04-27T02:33:16.703Z,100520.04
2019-04-27T02:35:46.259Z,100523.98
2019-04-27T02:38:15.702Z,100527.06
2019-04-27T02:40:51.955Z,100528.36
2019-04-27T02:43:26.443Z,100520.40
2019-04-27T02:45:55.957Z,100511.97
2019-04-27T02:48:25.394Z,100517.69
2019-04-27T02:51:02.263Z,100510.64
2019-04-27T02:53:49.873Z,100514.59
2019-04-27T02:56:20.225Z,100515.91
2019-04-27T02:58:49.909Z,100510.58
2019-04-27T03:01:20.345Z,100509.24
2019-04-27T03:03:50.358Z,100514.09
2019-04-27T03:06:20.127Z,100513.20
2019-04-27T03:08:53.956Z,100510.12
2019-04-27T03:11:23.430Z,100507.50
2019-04-27T03:14:15.104Z,100503.56
2019-04-27T03:17:00.183Z,100501.87
2019-04-27T03:19:31.239Z,100495.72
2019-04-27T03:22:02.357Z,100507.69
2019-04-27T03:24:49.987Z,100504.98
2019-04-27T03:27:21.166Z,100501.48
2019-04-27T03:29:50.719Z,100507.62
2019-04-27T03:32:22.676Z,100501.41
2019-04-27T03:34:52.548Z,100497.91
2019-04-27T03:37:22.372Z,100501.81
2019-04-27T03:39:51.951Z,100501.36
2019-04-27T03:42:21.864Z,100499.55
2019-04-27T03:44:51.303Z,100501.28
2019-04-27T03:47:20.770Z,100496.41
2019-04-27T03:49:50.883Z,100495.05
2019-04-27T03:52:23.165Z,100494.58
2019-04-27T03:54:54.241Z,100489.77
2019-04-27T03:57:34.695Z,100486.24
2019-04-27T04:00:10.111Z,100492.87
2019-04-27T04:02:40.448Z,100492.92
2019-04-27T04:05:10.273Z,100491.61
2019-04-27T04:07:40.505Z,100486.33
2019-04-27T04:10:10.808Z,100489.89
2019-04-27T04:12:56.409Z,100488.98
2019-04-27T04:15:35.516Z,100497.81
2019-04-27T04:18:05.245Z,100499.14
2019-04-27T04:20:34.700Z,100498.25
2019-04-27T04:23:04.237Z,100498.25
2019-04-27T04:25:33.710Z,100500.88
2019-04-27T04:28:03.162Z,100502.61
2019-04-27T04:30:32.601Z,100495.09
2019-04-27T04:33:02.104Z,100489.78
2019-04-27T04:35:33.365Z,100494.60
2019-04-27T04:38:03.049Z,100493.27
2019-04-27T04:40:43.794Z,100497.22
2019-04-27T04:43:29.422Z,100494.14
2019-04-27T04:46:19.503Z,100489.69
2019-04-27T04:48:50.167Z,100492.77
2019-04-27T04:51:20.124Z,100491.02
2019-04-27T04:53:51.878Z,100494.58
2019-04-27T04:56:21.162Z,100495.50
2019-04-27T04:58:50.634Z,100500.86
2019-04-27T05:01:20.146Z,100500.45
2019-04-27T05:03:49.621Z,100492.55
2019-04-27T05:06:19.093Z,100499.65
2019-04-27T05:08:49.374Z,100500.09
2019-04-27T05:11:19.574Z,100491.75
2019-04-27T05:13:49.479Z,100490.10
2019-04-27T05:16:19.085Z,100495.48
2019-04-27T05:18:49.562Z,100494.23
2019-04-27T05:21:31.245Z,100488.97
2019-04-27T05:24:02.155Z,100492.11
2019-04-27T05:26:31.798Z,100493.50
2019-04-27T05:29:03.301Z,100490.45
2019-04-27T05:31:32.737Z,100481.67
2019-04-27T05:34:02.207Z,100484.80
2019-04-27T05:36:32.751Z,100483.49
2019-04-27T05:39:02.240Z,100478.25
2019-04-27T05:41:37.384Z,100477.84
2019-04-27T05:44:07.636Z,100479.64
2019-04-27T05:46:41.122Z,100483.72
2019-04-27T05:49:21.237Z,100481.55
2019-04-27T05:51:51.688Z,100479.80
2019-04-27T05:54:21.157Z,100475.84
2019-04-27T05:56:50.606Z,100472.77
2019-04-27T05:59:20.084Z,100472.40
2019-04-27T06:01:49.558Z,100468.48
2019-04-27T06:04:19.416Z,100471.59
2019-04-27T06:06:49.910Z,100470.31
2019-04-27T06:09:19.658Z,100478.74
2019-04-27T06:11:50.668Z,100479.64
2019-04-27T06:14:20.362Z,100479.69
2019-04-27T06:16:51.271Z,100479.29
2019-04-27T06:19:22.214Z,100475.77
2019-04-27T06:21:52.679Z,100466.52
2019-04-27T06:24:26.637Z,100464.35
2019-04-27T06:26:56.174Z,100463.48
2019-04-27T06:29:25.663Z,100467.91
2019-04-27T06:31:55.112Z,100470.55
2019-04-27T06:34:24.760Z,100477.64
2019-04-27T06:36:54.249Z,100475.50
2019-04-27T06:39:23.699Z,100473.29
2019-04-27T06:41:53.182Z,100471.08
2019-04-27T06:44:22.669Z,100468.88
2019-04-27T06:46:52.121Z,100475.05
2019-04-27T06:49:21.703Z,100473.75
2019-04-27T06:51:51.178Z,100466.65
2019-04-27T06:54:21.432Z,100463.55
2019-04-27T06:56:51.078Z,100463.98
2019-04-27T06:59:20.543Z,100455.58
2019-04-27T07:01:50.021Z,100457.31
2019-04-27T07:04:19.840Z,100454.63
2019-04-27T07:06:54.186Z,100452.39
2019-04-27T07:09:20.492Z,100451.45
2019-04-27T07:11:49.939Z,100455.86
2019-04-27T07:14:19.828Z,100452.75
2019-04-27T07:16:50.785Z,100448.74
2019-04-27T07:19:21.414Z,100452.67
2019-04-27T07:21:50.885Z,100440.19
2019-04-27T07:24:20.363Z,100446.36
2019-04-27T07:26:49.805Z,100444.55
2019-04-27T07:29:19.661Z,100447.16
2019-04-27T07:31:49.729Z,100449.34
2019-04-27T07:34:19.231Z,100440.40
2019-04-27T07:36:49.231Z,100442.12
2019-04-27T07:39:19.395Z,100441.14
2019-04-27T07:41:49.004Z,100437.08
2019-04-27T07:44:22.844Z,100444.59
2019-04-27T07:47:10.445Z,100437.49
2019-04-27T07:49:39.898Z,100436.12
2019-04-27T07:52:09.321Z,100429.39
2019-04-27T07:54:40.905Z,100423.96
2019-04-27T07:57:09.975Z,100423.02
2019-04-27T07:59:41.931Z,100427.41
2019-04-27T08:02:11.680Z,100423.33
2019-04-27T08:04:41.122Z,100416.18
2019-04-27T08:07:10.571Z,100424.58
2019-04-27T08:09:40.109Z,100411.68
2019-04-27T08:12:10.861Z,100414.75
2019-04-27T08:14:40.618Z,100412.91
2019-04-27T08:17:10.053Z,100415.98
2019-04-27T08:19:39.653Z,100412.34
2019-04-27T08:22:09.676Z,100405.10
2019-04-27T08:24:40.289Z,100407.75
2019-04-27T08:27:14.711Z,100405.03
2019-04-27T08:29:48.847Z,100404.00
2019-04-27T08:32:20.015Z,100397.27
2019-04-27T08:34:49.742Z,100394.94
2019-04-27T08:37:19.218Z,100400.63
2019-04-27T08:39:49.582Z,100394.20
2019-04-27T08:42:19.819Z,100391.34
2019-04-27T08:44:49.726Z,100392.92
2019-04-27T08:47:19.578Z,100391.89
2019-04-27T08:49:49.357Z,100382.39
2019-04-27T08:52:19.393Z,100373.00
2019-04-27T08:54:49.311Z,100375.23
2019-04-27T08:57:20.101Z,100372.05
2019-04-27T08:59:51.081Z,100372.81
2019-04-27T09:02:20.739Z,100371.32
2019-04-27T09:04:50.178Z,100371.61
2019-04-27T09:07:33.170Z,100373.26
2019-04-27T09:10:13.279Z,100366.91
2019-04-27T09:12:53.296Z,100370.27
2019-04-27T09:15:36.286Z,100363.08
2019-04-27T09:18:06.602Z,100362.59
2019-04-27T09:20:38.971Z,100365.47
2019-04-27T09:23:09.844Z,100367.36
2019-04-27T09:25:39.706Z,100364.23
2019-04-27T09:28:09.284Z,100351.19
2019-04-27T09:30:39.395Z,100355.02
2019-04-27T09:33:08.975Z,100355.43
2019-04-27T09:35:38.439Z,100352.13
2019-04-27T09:38:07.885Z,100347.62
2019-04-27T09:40:37.496Z,100345.72
2019-04-27T09:43:07.572Z,100345.00
2019-04-27T09:45:37.273Z,100339.85
2019-04-27T09:48:08.238Z,100343.30
2019-04-27T09:50:37.704Z,100334.51
2019-04-27T09:53:07.139Z,100334.77
2019-04-27T09:55:37.013Z,100330.67
2019-04-27T09:58:07.396Z,100326.64
2019-04-27T10:00:37.507Z,100326.89
2019-04-27T10:03:07.042Z,100319.23
2019-04-27T10:05:36.888Z,100320.21
2019-04-27T10:08:07.644Z,100314.92
2019-04-27T10:10:37.311Z,100311.43
2019-04-27T10:13:07.308Z,100315.45
2019-04-27T10:15:36.790Z,100311.59
2019-04-27T10:18:06.312Z,100303.20
2019-04-27T10:20:40.435Z,100295.81
2019-04-27T10:23:07.194Z,100298.70
2019-04-27T10:25:37.480Z,100295.88
2019-04-27T10:28:07.155Z,100292.48
2019-04-27T10:30:36.657Z,100297.28
2019-04-27T10:33:08.160Z,100286.10
2019-04-27T10:35:37.314Z,100293.20
2019-04-27T10:38:06.909Z,100292.36
2019-04-27T10:40:38.070Z,100285.41
2019-04-27T10:43:07.704Z,100282.98
2019-04-27T10:45:37.864Z,100268.73
2019-04-27T10:48:07.635Z,100277.57
2019-04-27T10:50:37.110Z,100282.36
2019-04-27T10:53:07.081Z,100268.58
2019-04-27T10:55:37.625Z,100271.73
2019-04-27T10:58:07.512Z,100274.22
2019-04-27T11:00:41.507Z,100278.05
2019-04-27T11:03:12.274Z,100277.21
2019-04-27T11:05:59.906Z,100265.77
2019-04-27T11:08:29.334Z,100269.70
2019-04-27T11:10:58.814Z,100279.97
2019-04-27T11:13:28.248Z,100269.78
2019-04-27T11:15:57.704Z,100271.43
2019-04-27T11:18:27.134Z,100268.48
2019-04-27T11:20:56.801Z,100278.67
2019-04-27T11:23:26.470Z,100264.48
2019-04-27T11:25:55.923Z,100269.59
2019-04-27T11:28:26.430Z,100261.55
2019-04-27T11:30:55.897Z,100260.31
2019-04-27T11:33:26.349Z,100251.22
2019-04-27T11:35:58.545Z,100250.07
2019-04-27T11:38:27.978Z,100249.04
2019-04-27T11:40:57.484Z,100238.04
2019-04-27T11:43:26.940Z,100233.92
2019-04-27T11:45:56.406Z,100230.95
2019-04-27T11:48:26.324Z,100231.16
2019-04-27T11:50:56.120Z,100240.05
2019-04-27T11:53:26.750Z,100245.54
2019-04-27T11:55:56.217Z,100236.77
2019-04-27T11:58:26.548Z,100231.83
2019-04-27T12:00:56.165Z,100235.30
2019-04-27T12:03:25.771Z,100249.75
2019-04-27T12:06:00.051Z,100233.81
2019-04-27T12:08:27.518Z,100233.70
2019-04-27T12:10:56.999Z,100237.39
2019-04-27T12:13:26.420Z,100218.44
2019-04-27T12:15:55.879Z,100232.70
2019-04-27T12:18:25.355Z,100219.76
2019-04-27T12:20:55.787Z,100215.75
2019-04-27T12:23:33.731Z,100216.81
2019-04-27T12:25:56.463Z,100212.94
2019-04-27T12:28:27.576Z,100215.73
2019-04-27T12:30:58.692Z,100211.30
2019-04-27T12:33:28.227Z,100202.98
2019-04-27T12:35:57.782Z,100204.73
2019-04-27T12:38:28.283Z,100201.23
2019-04-27T12:40:57.899Z,100206.98
2019-04-27T12:43:27.357Z,100199.94
2019-04-27T12:45:56.811Z,100200.97
2019-04-27T12:48:26.352Z,100192.95
2019-04-27T12:50:56.411Z,100199.48
2019-04-27T12:53:27.585Z,100198.33
2019-04-27T12:56:17.046Z,100201.28
2019-04-27T12:58:53.968Z,100201.42
2019-04-27T13:01:25.845Z,100216.56
2019-04-27T13:03:58.883Z,100226.13
2019-04-27T13:06:26.590Z,100229.33
2019-04-27T13:08:56.124Z,100228.75
2019-04-27T13:11:26.698Z,100238.31
2019-04-27T13:13:57.690Z,100228.95
2019-04-27T13:16:30.338Z,100230.34
2019-04-27T13:18:58.453Z,100231.48
2019-04-27T13:21:27.963Z,100232.30
2019-04-27T13:24:04.106Z,100226.92
2019-04-27T13:26:29.911Z,100225.95
2019-04-27T13:28:59.667Z,100234.20
2019-04-27T13:31:29.144Z,100221.92
2019-04-27T13:33:58.604Z,100224.10
2019-04-27T13:36:28.070Z,100220.47
2019-04-27T13:38:57.668Z,100227.03
2019-04-27T13:41:32.634Z,100222.61
2019-04-27T13:43:58.386Z,100220.03
2019-04-27T13:46:29.474Z,100225.67
2019-04-27T13:49:09.833Z,100218.72
2019-04-27T13:51:41.001Z,100221.05
2019-04-27T13:54:19.669Z,100220.28
2019-04-27T13:56:41.691Z,100221.62
2019-04-27T13:59:12.797Z,100227.17
2019-04-27T14:01:42.319Z,100225.11
2019-04-27T14:04:11.786Z,100220.86
2019-04-27T14:06:42.054Z,100218.94
2019-04-27T14:09:12.775Z,100223.84
2019-04-27T14:11:42.801Z,100227.77
2019-04-27T14:14:12.258Z,100225.50
2019-04-27T14:16:43.820Z,100226.39
2019-04-27T14:19:12.935Z,100221.98
2019-04-27T14:21:42.401Z,100238.57
2019-04-27T14:24:11.841Z,100233.95
2019-04-27T14:26:41.431Z,100223.86
2019-04-27T14:29:10.904Z,100229.90
2019-04-27T14:31:40.377Z,100235.20
2019-04-27T14:34:09.816Z,100235.02
2019-04-27T14:36:40.561Z,100227.07
2019-04-27T14:39:12.680Z,100227.56
2019-04-27T14:41:42.277Z,100219.69
2019-04-27T14:44:11.806Z,100223.44
2019-04-27T14:46:42.206Z,100230.20
2019-04-27T14:49:11.686Z,100217.58
2019-04-27T14:51:41.146Z,100228.88
2019-04-27T14:54:10.612Z,100221.41
2019-04-27T14:56:40.270Z,100221.82
2019-04-27T14:59:10.938Z,100212.78
2019-04-27T15:01:41.506Z,100215.42
2019-04-27T15:04:11.013Z,100221.88
2019-04-27T15:06:40.506Z,100211.74
2019-04-27T15:09:13.349Z,100225.62
2019-04-27T15:11:41.629Z,100230.67
2019-04-27T15:14:11.106Z,100236.19
2019-04-27T15:16:42.650Z,100235.86
2019-04-27T15:19:17.584Z,100248.42
2019-04-27T15:21:56.430Z,100253.01
2019-04-27T15:24:15.661Z,100246.19
2019-04-27T15:26:45.442Z,100251.30
2019-04-27T15:29:20.515Z,100251.48
2019-04-27T15:31:49.589Z,100255.64
2019-04-27T15:34:35.472Z,100255.29
2019-04-27T15:37:11.456Z,100261.57
2019-04-27T15:40:04.014Z,100263.35
2019-04-27T15:42:33.055Z,100267.35
2019-04-27T15:45:02.681Z,100274.50
2019-04-27T15:47:33.713Z,100279.81
2019-04-27T15:50:04.259Z,100276.78
2019-04-27T15:52:34.791Z,100285.75
2019-04-27T15:55:11.223Z,100291.59
2019-04-27T15:57:38.209Z,100295.66
2019-04-27T16:00:17.237Z,100297.57
2019-04-27T16:02:44.483Z,100297.23
2019-04-27T16:05:16.753Z,100297.80
2019-04-27T16:07:44.951Z,100291.63
2019-04-27T16:10:17.714Z,100292.64
2019-04-27T16:13:05.466Z,100291.36
2019-04-27T16:15:18.517Z,100293.56
2019-04-27T16:17:53.232Z,100294.04
2019-04-27T16:20:28.879Z,100294.98
2019-04-27T16:22:50.498Z,100292.37
2019-04-27T16:25:23.531Z,100296.34
2019-04-27T16:27:51.107Z,100293.75
2019-04-27T16:30:20.733Z,100296.42
2019-04-27T16:32:50.218Z,100293.78
2019-04-27T16:35:23.001Z,100290.25
2019-04-27T16:38:00.109Z,100289.38
2019-04-27T16:40:30.126Z,100288.92
2019-04-27T16:43:00.912Z,100295.57
2019-04-27T16:45:30.592Z,100288.02
2019-04-27T16:48:02.022Z,100289.75
2019-04-27T16:50:32.569Z,100285.70
2019-04-27T16:53:02.038Z,100290.19
2019-04-27T16:55:34.093Z,100317.25
2019-04-27T16:58:02.713Z,100318.23
2019-04-27T17:00:33.436Z,100325.83
2019-04-27T17:03:05.082Z,100329.41
2019-04-27T17:05:34.784Z,100340.94
2019-04-27T17:08:04.535Z,100344.91
2019-04-27T17:10:34.067Z,100355.52
2019-04-27T17:13:06.132Z,100355.43
2019-04-27T17:15:53.696Z,100361.55
2019-04-27T17:18:25.525Z,100358.85
2019-04-27T17:21:00.115Z,100364.88
2019-04-27T17:23:31.110Z,100363.03
2019-04-27T17:26:04.454Z,100364.25
2019-04-27T17:28:50.925Z,100366.41
2019-04-27T17:31:22.250Z,100374.69
2019-04-27T17:33:56.054Z,100375.45
2019-04-27T17:36:25.658Z,100374.42
2019-04-27T17:38:55.094Z,100378.72
2019-04-27T17:41:24.625Z,100381.36
2019-04-27T17:43:54.166Z,100392.36
2019-04-27T17:46:23.704Z,100392.83
2019-04-27T17:48:53.212Z,100394.58
2019-04-27T17:51:22.691Z,100395.47
2019-04-27T17:53:52.257Z,100399.47
2019-04-27T17:56:33.409Z,100405.59
2019-04-27T17:58:52.873Z,100405.57
2019-04-27T18:01:29.261Z,100412.16
2019-04-27T18:04:00.179Z,100414.38
2019-04-27T18:06:27.820Z,100414.81
2019-04-27T18:09:00.840Z,100413.06
2019-04-27T18:11:28.797Z,100424.49
2019-04-27T18:14:00.356Z,100422.27
2019-04-27T18:16:33.953Z,100436.81
2019-04-27T18:19:11.952Z,100445.64
2019-04-27T18:21:43.447Z,100449.19
2019-04-27T18:24:18.601Z,100457.14
2019-04-27T18:27:00.483Z,100451.44
2019-04-27T18:29:30.753Z,100451.94
2019-04-27T18:31:58.286Z,100457.64
2019-04-27T18:34:28.643Z,100458.48
2019-04-27T18:36:58.286Z,100455.41
2019-04-27T18:39:27.729Z,100455.84
2019-04-27T18:41:58.518Z,100458.95
2019-04-27T18:44:31.760Z,100451.88
2019-04-27T18:47:02.276Z,100456.75
2019-04-27T18:49:35.719Z,100455.91
2019-04-27T18:52:23.269Z,100453.70
2019-04-27T18:54:52.702Z,100461.21
2019-04-27T18:57:22.155Z,100462.12
2019-04-27T18:59:51.590Z,100460.80
2019-04-27T19:02:21.093Z,100457.27
2019-04-27T19:04:50.523Z,100455.52
2019-04-27T19:07:20.097Z,100461.62
2019-04-27T19:09:49.695Z,100472.11
2019-04-27T19:12:20.541Z,100478.72
2019-04-27T19:14:50.102Z,100480.05
2019-04-27T19:17:20.021Z,100489.30
2019-04-27T19:19:50.704Z,100481.42
2019-04-27T19:22:20.222Z,100481.88
2019-04-27T19:24:49.685Z,100491.20
2019-04-27T19:27:23.363Z,100487.66
2019-04-27T19:29:58.875Z,100488.56
2019-04-27T19:32:29.238Z,100499.57
2019-04-27T19:34:59.335Z,100493.38
2019-04-27T19:37:29.011Z,100500.86
2019-04-27T19:39:58.544Z,100500.36
2019-04-27T19:42:28.644Z,100503.44
2019-04-27T19:44:58.207Z,100504.75
2019-04-27T19:47:27.671Z,100510.03
2019-04-27T19:49:57.108Z,100505.64
2019-04-27T19:52:28.237Z,100503.44
2019-04-27T19:54:58.532Z,100510.53
2019-04-27T19:57:36.354Z,100515.83
2019-04-27T20:00:03.998Z,100513.61
2019-04-27T20:02:34.596Z,100519.83
2019-04-27T20:05:06.348Z,100517.19
2019-04-27T20:07:37.947Z,100520.32
2019-04-27T20:10:08.804Z,100514.63
2019-04-27T20:12:41.114Z,100513.30
2019-04-27T20:15:11.512Z,100514.20
2019-04-27T20:17:41.004Z,100523.46
2019-04-27T20:20:10.928Z,100521.25
2019-04-27T20:22:40.360Z,100519.92
2019-04-27T20:25:11.238Z,100515.04
2019-04-27T20:27:46.831Z,100517.69
2019-04-27T20:30:13.931Z,100522.55
2019-04-27T20:32:44.763Z,100517.23
2019-04-27T20:35:14.204Z,100523.41
2019-04-27T20:37:43.803Z,100528.74
2019-04-27T20:40:14.330Z,100528.75
2019-04-27T20:42:43.869Z,100532.30
2019-04-27T20:45:13.455Z,100521.32
2019-04-27T20:47:42.902Z,100518.26
2019-04-27T20:50:12.833Z,100509.83
2019-04-27T20:52:44.013Z,100518.19
2019-04-27T20:55:13.564Z,100517.28
2019-04-27T20:57:42.991Z,100521.25
2019-04-27T21:00:14.182Z,100520.34
2019-04-27T21:02:56.113Z,100521.23
2019-04-27T21:05:40.968Z,100517.26
2019-04-27T21:08:11.990Z,100524.30
2019-04-27T21:10:41.457Z,100533.13
2019-04-27T21:13:11.326Z,100529.58
2019-04-27T21:15:41.897Z,100526.91
2019-04-27T21:18:12.615Z,100525.53
2019-04-27T21:20:42.132Z,100520.23
2019-04-27T21:23:12.183Z,100523.36
2019-04-27T21:25:42.243Z,100526.83
2019-04-27T21:28:18.563Z,100527.63
2019-04-27T21:30:43.062Z,100531.08
2019-04-27T21:33:12.498Z,100526.62
2019-04-27T21:35:42.145Z,100527.94
2019-04-27T21:38:11.755Z,100519.99
2019-04-27T21:40:41.216Z,100520.44
2019-04-27T21:43:11.359Z,100524.45
2019-04-27T21:45:42.015Z,100525.78
2019-04-27T21:48:11.653Z,100528.45
2019-04-27T21:50:41.402Z,100528.48
2019-04-27T21:53:12.574Z,100531.59
2019-04-27T21:55:42.276Z,100540.84
2019-04-27T21:58:11.804Z,100543.47
2019-04-27T22:00:43.165Z,100542.59
2019-04-27T22:03:16.027Z,100538.18
2019-04-27T22:05:46.578Z,100530.17
2019-04-27T22:08:16.004Z,100531.48
2019-04-27T22:10:45.470Z,100539.83
2019-04-27T22:13:14.930Z,100534.52
2019-04-27T22:15:44.536Z,100540.71
2019-04-27T22:18:13.972Z,100542.89
2019-04-27T22:20:43.473Z,100546.84
2019-04-27T22:23:22.973Z,100545.52
2019-04-27T22:25:54.306Z,100548.99
2019-04-27T22:28:22.763Z,100549.46
2019-04-27T22:30:52.227Z,100560.94
2019-04-27T22:33:21.666Z,100560.94
2019-04-27T22:35:51.749Z,100564.86
2019-04-27T22:38:21.340Z,100570.62
2019-04-27T22:41:08.575Z,100567.50
2019-04-27T22:43:56.269Z,100567.08
2019-04-27T22:46:27.441Z,100574.17
2019-04-27T22:48:56.922Z,100584.27
2019-04-27T22:51:26.398Z,100579.39
2019-04-27T22:53:55.833Z,100585.98
2019-04-27T22:56:25.304Z,100586.89
2019-04-27T22:59:12.549Z,100592.67
2019-04-27T23:01:52.729Z,100594.87
2019-04-27T23:04:41.210Z,100593.20
2019-04-27T23:07:11.185Z,100598.48
2019-04-27T23:09:42.785Z,100603.32
2019-04-27T23:12:13.022Z,100606.81
2019-04-27T23:14:42.458Z,100615.19
2019-04-27T23:17:29.015Z,100614.28
2019-04-27T23:19:58.452Z,100611.63
2019-04-27T23:22:27.925Z,100608.16
2019-04-27T23:24:57.349Z,100612.98
2019-04-27T23:27:26.819Z,100618.73
2019-04-27T23:29:56.263Z,100617.00
2019-04-27T23:32:31.658Z,100613.03
2019-04-27T23:35:12.937Z,100615.63
2019-04-27T23:37:42.414Z,100612.98
2019-04-27T23:40:13.882Z,100612.17
2019-04-27T23:42:43.379Z,100604.64
2019-04-27T23:45:14.114Z,100619.19
2019-04-27T23:47:43.602Z,100615.63
2019-04-27T23:50:14.514Z,100618.26
2019-04-27T23:53:01.920Z,100621.78
2019-04-27T23:55:33.312Z,100622.21
2019-04-27T23:58:02.980Z,100627.06
